Time;durP1;ratioP1;P1;durP2;ratioP2;P2;SDS_P1;SDS_P2;PMS_P1;PMS_P2;Temp;Humidity;BMP_temperature;BMP_pressure;BME280_temperature;BME280_humidity;BME280_pressure;Samples;Min_cycle;Max_cycle;Signal;HPM_P1;HPM_P2
2022/06/17 00:00:20;;;;;;;8.02;5.28;;;;;;;;;;5074949;28;20035;-59
2022/06/17 00:02:45;;;;;;;8.13;5.32;;;;;;;;;;5071746;28;20035;-59
2022/06/17 00:05:11;;;;;;;9.48;4.97;;;;;;;;;;5068668;28;20033;-58
2022/06/17 00:07:38;;;;;;;8.00;5.30;;;;;;;;;;5063381;28;20417;-58
2022/06/17 00:10:10;;;;;;;9.23;5.72;;;;;;;;;;5074578;28;20066;-59
2022/06/17 00:12:35;;;;;;;8.35;5.50;;;;;;;;;;5054458;28;20116;-59
2022/06/17 00:17:59;;;;;;;8.00;5.50;;;;;;;;;;5023558;28;20526;-58
2022/06/17 00:20:24;;;;;;;8.57;5.35;;;;;;;;;;5042339;28;20029;-58
2022/06/17 00:22:51;;;;;;;8.18;5.50;;;;;;;;;;5066796;28;20093;-58
2022/06/17 00:25:26;;;;;;;6.80;5.60;;;;;;;;;;5067101;28;20476;-58
2022/06/17 00:27:55;;;;;;;7.75;4.82;;;;;;;;;;5061975;28;20459;-58
2022/06/17 00:30:27;;;;;;;6.30;5.40;;;;;;;;;;5063908;28;20024;-59
2022/06/17 00:32:58;;;;;;;7.78;5.43;;;;;;;;;;5059788;28;20090;-58
2022/06/17 00:35:29;;;;;;;9.48;5.97;;;;;;;;;;5062638;28;20032;-58
2022/06/17 00:37:55;;;;;;;7.88;5.60;;;;;;;;;;5059667;28;20067;-58
2022/06/17 00:40:26;;;;;;;6.72;5.15;;;;;;;;;;5075090;28;20414;-58
2022/06/17 00:42:53;;;;;;;6.90;5.40;;;;;;;;;;5068339;28;20388;-58
2022/06/17 00:45:21;;;;;;;7.50;5.72;;;;;;;;;;5073428;28;20036;-58
2022/06/17 00:48:09;;;;;;;7.05;5.50;;;;;;;;;;5074875;28;20396;-58
2022/06/17 00:50:59;;;;;;;9.10;5.88;;;;;;;;;;5072166;28;20037;-58
2022/06/17 00:53:27;;;;;;;;;;;;;;;;;;5071865;28;20564;-58
2022/06/17 00:55:55;;;;;;;6.88;5.35;;;;;;;;;;5073839;28;19908;-58
2022/06/17 00:58:26;;;;;;;7.40;5.78;;;;;;;;;;5072211;28;20373;-57
2022/06/17 01:00:55;;;;;;;8.70;5.57;;;;;;;;;;5071092;28;20033;-57
2022/06/17 01:03:29;;;;;;;8.70;6.13;;;;;;;;;;5081507;28;20024;-58
2022/06/17 01:06:05;;;;;;;8.38;5.40;;;;;;;;;;5073841;28;20412;-58
2022/06/17 01:11:38;;;;;;;6.88;5.57;;;;;;;;;;5072029;28;20024;-58
2022/06/17 01:14:06;;;;;;;8.02;5.95;;;;;;;;;;5071754;28;20399;-58
2022/06/17 01:16:37;;;;;;;9.88;5.55;;;;;;;;;;5071686;28;20032;-58
2022/06/17 01:19:12;;;;;;;7.90;6.00;;;;;;;;;;5083734;28;20016;-58
2022/06/17 01:21:49;;;;;;;8.38;5.68;;;;;;;;;;5074660;28;20442;-58
2022/06/17 01:24:15;;;;;;;8.05;5.30;;;;;;;;;;5070252;28;20028;-58
2022/06/17 01:26:40;;;;;;;7.10;5.55;;;;;;;;;;5070703;28;20020;-58
2022/06/17 01:29:16;;;;;;;8.30;5.40;;;;;;;;;;5066724;28;20024;-58
2022/06/17 01:31:47;;;;;;;17.83;7.65;;;;;;;;;;5064377;28;20028;-58
2022/06/17 01:34:13;;;;;;;6.90;5.68;;;;;;;;;;5066586;28;20017;-58
2022/06/17 01:36:40;;;;;;;7.15;5.50;;;;;;;;;;5065528;28;20024;-58
2022/06/17 01:39:06;;;;;;;9.55;6.20;;;;;;;;;;5073987;28;20028;-57
2022/06/17 01:41:33;;;;;;;7.18;5.68;;;;;;;;;;5072389;28;20398;-58
2022/06/17 01:44:08;;;;;;;9.45;5.75;;;;;;;;;;5073219;28;20056;-57
2022/06/17 01:46:37;;;;;;;9.60;6.20;;;;;;;;;;5071487;28;20043;-58
2022/06/17 01:49:13;;;;;;;7.85;6.03;;;;;;;;;;5073751;28;20036;-58
2022/06/17 01:51:42;;;;;;;8.25;6.03;;;;;;;;;;5070602;28;20132;-57
2022/06/17 01:54:15;;;;;;;9.75;5.85;;;;;;;;;;5075339;28;20020;-58
2022/06/17 01:56:44;;;;;;;7.90;5.75;;;;;;;;;;5075061;28;20020;-57
2022/06/17 01:59:18;;;;;;;9.70;6.53;;;;;;;;;;5072755;28;20016;-57
2022/06/17 02:01:48;;;;;;;9.60;6.10;;;;;;;;;;5071511;28;20033;-58
2022/06/17 02:04:19;;;;;;;8.63;6.05;;;;;;;;;;5066691;28;20028;-58
2022/06/17 02:06:53;;;;;;;7.43;5.50;;;;;;;;;;5073954;28;20039;-58
2022/06/17 02:09:19;;;;;;;6.32;5.43;;;;;;;;;;5070065;28;20017;-58
2022/06/17 02:11:45;;;;;;;8.60;6.18;;;;;;;;;;5072992;28;20039;-57
2022/06/17 02:14:11;;;;;;;9.68;6.05;;;;;;;;;;5076780;28;20127;-58
2022/06/17 02:16:41;;;;;;;9.60;6.40;;;;;;;;;;5073550;28;20036;-57
2022/06/17 02:19:07;;;;;;;8.75;5.75;;;;;;;;;;5069988;28;20084;-59
2022/06/17 02:21:41;;;;;;;8.43;5.72;;;;;;;;;;5070382;28;20029;-58
2022/06/17 02:24:09;;;;;;;7.65;5.90;;;;;;;;;;5067290;28;20065;-59
2022/06/17 02:26:36;;;;;;;9.68;5.55;;;;;;;;;;5065146;28;20051;-59
2022/06/17 02:29:06;;;;;;;9.15;5.88;;;;;;;;;;5061754;28;20025;-58
2022/06/17 02:31:32;;;;;;;;;;;;;;;;;;5065490;28;20460;-58
2022/06/17 02:33:58;;;;;;;7.03;5.75;;;;;;;;;;5066379;28;19908;-58
2022/06/17 02:36:35;;;;;;;7.28;6.05;;;;;;;;;;5066342;28;20028;-58
2022/06/17 02:39:01;;;;;;;7.03;5.63;;;;;;;;;;5067987;28;20031;-59
2022/06/17 02:41:28;;;;;;;7.50;5.72;;;;;;;;;;5074247;28;20028;-58
2022/06/17 02:44:03;;;;;;;7.85;5.75;;;;;;;;;;5072144;28;20391;-58
2022/06/17 02:46:36;;;;;;;9.18;5.20;;;;;;;;;;5070941;28;20028;-58
2022/06/17 02:49:06;;;;;;;8.20;5.72;;;;;;;;;;5073041;28;20115;-58
2022/06/17 02:51:35;;;;;;;7.13;5.88;;;;;;;;;;5073920;28;20032;-58
2022/06/17 02:54:03;;;;;;;11.27;6.32;;;;;;;;;;5072205;28;20029;-58
2022/06/17 02:56:31;;;;;;;10.07;5.90;;;;;;;;;;5069818;28;20337;-58
2022/06/17 02:59:22;;;;;;;8.38;6.25;;;;;;;;;;5073866;28;20387;-58
2022/06/17 03:01:51;;;;;;;8.80;5.88;;;;;;;;;;5074925;28;20021;-58
2022/06/17 03:04:28;;;;;;;10.65;5.80;;;;;;;;;;5069208;28;20037;-58
2022/06/17 03:06:53;;;;;;;8.05;5.75;;;;;;;;;;5072213;28;20533;-58
2022/06/17 03:09:25;;;;;;;8.73;6.18;;;;;;;;;;5075972;28;20113;-57
2022/06/17 03:12:20;;;;;;;7.78;5.05;;;;;;;;;;5071428;28;20076;-58
2022/06/17 03:14:55;;;;;;;10.60;6.03;;;;;;;;;;5072844;28;20016;-60
2022/06/17 03:17:23;;;;;;;14.18;8.95;;;;;;;;;;5073759;28;20556;-58
2022/06/17 03:19:50;;;;;;;12.60;8.85;;;;;;;;;;5071056;28;20447;-58
2022/06/17 03:22:15;;;;;;;10.90;6.55;;;;;;;;;;5064233;28;20020;-58
2022/06/17 03:25:07;;;;;;;9.15;6.88;;;;;;;;;;5064326;28;20043;-59
2022/06/17 03:27:45;;;;;;;8.07;6.80;;;;;;;;;;5064269;28;20036;-58
2022/06/17 03:30:13;;;;;;;7.60;6.13;;;;;;;;;;5061323;28;20039;-59
2022/06/17 03:32:43;;;;;;;9.27;6.43;;;;;;;;;;5065699;28;20020;-59
2022/06/17 03:35:27;;;;;;;12.38;6.97;;;;;;;;;;5064835;28;20021;-59
2022/06/17 03:38:03;;;;;;;9.85;6.70;;;;;;;;;;5066085;28;20031;-58
2022/06/17 03:40:34;;;;;;;8.73;6.50;;;;;;;;;;5074472;28;20042;-57
2022/06/17 03:43:44;;;;;;;11.13;6.03;;;;;;;;;;5071453;28;20395;-58
2022/06/17 03:46:11;;;;;;;7.90;6.15;;;;;;;;;;5045382;28;20072;-59
2022/06/17 03:48:42;;;;;;;10.30;6.35;;;;;;;;;;5067365;28;20040;-59
2022/06/17 03:51:15;;;;;;;7.28;5.80;;;;;;;;;;5070818;28;20036;-59
2022/06/17 03:53:42;;;;;;;7.43;5.80;;;;;;;;;;5070223;28;20025;-58
2022/06/17 03:56:07;;;;;;;10.70;6.30;;;;;;;;;;5073847;28;20025;-58
2022/06/17 03:58:33;;;;;;;7.93;6.25;;;;;;;;;;5073992;28;20084;-58
2022/06/17 04:01:10;;;;;;;7.45;6.30;;;;;;;;;;5070758;28;20034;-58
2022/06/17 04:03:40;;;;;;;8.73;5.88;;;;;;;;;;5068977;28;20017;-59
2022/06/17 04:06:10;;;;;;;7.35;5.95;;;;;;;;;;5072274;28;20043;-60
2022/06/17 04:08:57;;;;;;;8.13;6.20;;;;;;;;;;5073397;28;20110;-58
2022/06/17 04:11:27;;;;;;;10.88;6.15;;;;;;;;;;5066352;28;20350;-58
2022/06/17 04:13:59;;;;;;;10.07;6.65;;;;;;;;;;5074421;28;20031;-58
2022/06/17 04:16:59;;;;;;;9.23;6.18;;;;;;;;;;5074806;28;20065;-59
2022/06/17 04:19:28;;;;;;;8.30;5.65;;;;;;;;;;5042572;28;20045;-58
2022/06/17 04:21:58;;;;;;;12.88;6.43;;;;;;;;;;5054467;28;20020;-59
2022/06/17 04:24:27;;;;;;;9.07;6.20;;;;;;;;;;5063423;28;20027;-59
2022/06/17 04:26:57;;;;;;;10.18;6.25;;;;;;;;;;5060831;28;20108;-59
2022/06/17 04:29:37;;;;;;;8.98;6.25;;;;;;;;;;5061220;28;20029;-58
2022/06/17 04:32:12;;;;;;;9.52;6.50;;;;;;;;;;5063848;28;20028;-58
2022/06/17 04:34:38;;;;;;;8.77;5.97;;;;;;;;;;5063479;28;20016;-58
2022/06/17 04:37:09;;;;;;;12.18;6.05;;;;;;;;;;5071079;28;20051;-58
2022/06/17 04:39:43;;;;;;;9.55;6.63;;;;;;;;;;5068953;28;20063;-60
2022/06/17 04:42:16;;;;;;;7.35;6.35;;;;;;;;;;5070257;28;20025;-58
2022/06/17 04:44:42;;;;;;;7.45;6.03;;;;;;;;;;5069102;28;20484;-58
2022/06/17 04:47:16;;;;;;;8.70;5.82;;;;;;;;;;5067923;28;20025;-58
2022/06/17 04:49:46;;;;;;;10.55;6.75;;;;;;;;;;5071631;28;20022;-59
2022/06/17 04:52:37;;;;;;;8.88;6.55;;;;;;;;;;5069699;28;20064;-58
2022/06/17 04:55:06;;;;;;;11.73;6.55;;;;;;;;;;5069020;28;20037;-58
2022/06/17 04:57:31;;;;;;;11.23;6.82;;;;;;;;;;5073459;28;20448;-58
2022/06/17 04:59:59;;;;;;;9.23;6.35;;;;;;;;;;5070936;28;20037;-58
2022/06/17 05:02:31;;;;;;;13.10;6.70;;;;;;;;;;5066213;28;20028;-58
2022/06/17 05:05:02;;;;;;;7.45;5.72;;;;;;;;;;5073833;28;20024;-59
2022/06/17 05:07:32;;;;;;;11.68;5.70;;;;;;;;;;5073624;28;20115;-59
2022/06/17 05:10:04;;;;;;;8.13;6.22;;;;;;;;;;5068009;28;20031;-59
2022/06/17 05:13:02;;;;;;;9.55;6.60;;;;;;;;;;5066961;28;20499;-59
2022/06/17 05:15:29;;;;;;;10.98;8.27;;;;;;;;;;5067037;28;20469;-59
2022/06/17 05:17:56;;;;;;;8.77;6.20;;;;;;;;;;5069053;28;20062;-60
2022/06/17 05:20:23;;;;;;;9.57;6.57;;;;;;;;;;5066537;28;20033;-57
2022/06/17 05:22:56;;;;;;;8.82;6.85;;;;;;;;;;5064133;28;20024;-58
2022/06/17 05:25:28;;;;;;;9.48;5.88;;;;;;;;;;5066447;28;20028;-59
2022/06/17 05:27:54;;;;;;;12.25;7.07;;;;;;;;;;5063954;28;20508;-60
2022/06/17 05:30:20;;;;;;;9.88;6.80;;;;;;;;;;5065070;28;20059;-56
2022/06/17 05:32:54;;;;;;;8.05;6.38;;;;;;;;;;5067573;28;20039;-56
2022/06/17 05:35:21;;;;;;;17.23;6.07;;;;;;;;;;5073363;28;20021;-57
2022/06/17 05:37:47;;;;;;;7.10;5.95;;;;;;;;;;5073531;28;20510;-55
2022/06/17 05:40:14;;;;;;;8.95;6.38;;;;;;;;;;5073465;28;20308;-56
2022/06/17 05:42:40;;;;;;;9.25;6.90;;;;;;;;;;5072096;28;20024;-56
2022/06/17 05:45:07;;;;;;;8.25;6.30;;;;;;;;;;5073648;28;20075;-58
2022/06/17 05:47:32;;;;;;;7.53;6.25;;;;;;;;;;5071675;28;20480;-58
2022/06/17 05:49:58;;;;;;;11.07;5.95;;;;;;;;;;5074064;28;20099;-55
2022/06/17 05:52:23;;;;;;;10.23;6.88;;;;;;;;;;5076130;28;20550;-55
2022/06/17 05:54:49;;;;;;;16.65;7.07;;;;;;;;;;5068647;28;20052;-57
2022/06/17 05:57:16;;;;;;;12.77;7.75;;;;;;;;;;5071015;28;20082;-58
2022/06/17 05:59:41;;;;;;;11.18;7.28;;;;;;;;;;5072091;28;20467;-57
2022/06/17 06:02:07;;;;;;;9.27;6.95;;;;;;;;;;5071344;28;20154;-56
2022/06/17 06:04:32;;;;;;;9.43;6.45;;;;;;;;;;5068951;28;20027;-58
2022/06/17 06:06:59;;;;;;;14.50;7.10;;;;;;;;;;5072699;28;20027;-60
2022/06/17 06:09:25;;;;;;;9.48;6.50;;;;;;;;;;5070429;28;20102;-57
2022/06/17 06:11:51;;;;;;;11.13;6.30;;;;;;;;;;5071096;28;20036;-58
2022/06/17 06:14:17;;;;;;;9.48;6.13;;;;;;;;;;5076490;28;20111;-56
2022/06/17 06:16:42;;;;;;;8.60;5.90;;;;;;;;;;5067736;28;20082;-57
2022/06/17 06:19:07;;;;;;;7.75;5.75;;;;;;;;;;5073264;28;20035;-56
2022/06/17 06:21:33;;;;;;;10.32;6.07;;;;;;;;;;5064034;28;20024;-56
2022/06/17 06:23:58;;;;;;;11.45;6.05;;;;;;;;;;5064806;28;20028;-56
2022/06/17 06:26:24;;;;;;;9.52;6.63;;;;;;;;;;5065021;28;20122;-56
2022/06/17 06:28:50;;;;;;;9.55;5.82;;;;;;;;;;5062040;28;20032;-59
2022/06/17 06:31:35;;;;;;;9.55;6.10;;;;;;;;;;5063947;28;20025;-57
2022/06/17 06:34:00;;;;;;;7.43;6.22;;;;;;;;;;5070028;28;20021;-56
2022/06/17 06:36:26;;;;;;;9.95;6.57;;;;;;;;;;5070891;28;20028;-58
2022/06/17 06:38:51;;;;;;;10.30;6.47;;;;;;;;;;5072528;28;20090;-58
2022/06/17 06:41:21;;;;;;;9.13;6.50;;;;;;;;;;5070971;28;20047;-57
2022/06/17 06:43:47;;;;;;;12.35;6.22;;;;;;;;;;5072627;28;20029;-58
2022/06/17 06:46:15;;;;;;;9.20;6.15;;;;;;;;;;5072044;28;20028;-57
2022/06/17 06:48:41;;;;;;;11.32;6.18;;;;;;;;;;5070119;28;20045;-59
2022/06/17 06:51:07;;;;;;;7.60;6.05;;;;;;;;;;5072201;28;20068;-59
2022/06/17 06:53:32;;;;;;;8.40;6.13;;;;;;;;;;5069354;28;20032;-59
2022/06/17 06:55:58;;;;;;;8.15;6.13;;;;;;;;;;5072249;28;20557;-60
2022/06/17 06:58:25;;;;;;;11.23;6.75;;;;;;;;;;5069428;28;20109;-59
2022/06/17 07:00:54;;;;;;;12.65;5.80;;;;;;;;;;5070942;28;20044;-59
2022/06/17 07:03:24;;;;;;;6.88;5.78;;;;;;;;;;5072720;28;20108;-59
2022/06/17 07:05:55;;;;;;;10.00;6.15;;;;;;;;;;5071382;28;20064;-58
2022/06/17 07:08:27;;;;;;;8.90;5.82;;;;;;;;;;5061776;28;20041;-59
2022/06/17 07:10:56;;;;;;;9.23;6.13;;;;;;;;;;5071489;28;20032;-59
2022/06/17 07:13:22;;;;;;;9.07;6.88;;;;;;;;;;5074622;28;20102;-59
2022/06/17 07:15:48;;;;;;;10.27;6.55;;;;;;;;;;5060507;28;20024;-61
2022/06/17 07:18:18;;;;;;;11.40;6.20;;;;;;;;;;5066893;28;20021;-63
2022/06/17 07:20:47;;;;;;;10.70;6.80;;;;;;;;;;5068124;28;20506;-60
2022/06/17 07:23:14;;;;;;;7.13;5.63;;;;;;;;;;5063833;28;20645;-61
2022/06/17 07:25:40;;;;;;;8.07;6.25;;;;;;;;;;5062352;28;20083;-60
2022/06/17 07:28:06;;;;;;;7.40;6.20;;;;;;;;;;5063520;28;20032;-59
2022/06/17 07:30:35;;;;;;;8.07;6.93;;;;;;;;;;5062350;28;20046;-58
2022/06/17 07:33:01;;;;;;;7.85;6.43;;;;;;;;;;5070077;28;20032;-60
2022/06/17 07:35:27;;;;;;;9.18;6.53;;;;;;;;;;5069977;28;20029;-60
2022/06/17 07:40:37;;;;;;;10.77;6.25;;;;;;;;;;5066070;28;20536;-60
2022/06/17 07:43:03;;;;;;;9.40;6.95;;;;;;;;;;5070881;28;20036;-60
2022/06/17 07:45:31;;;;;;;9.80;6.70;;;;;;;;;;5068003;28;20488;-58
2022/06/17 07:47:57;;;;;;;7.28;6.57;;;;;;;;;;5069592;28;20356;-60
2022/06/17 07:50:28;;;;;;;9.10;7.35;;;;;;;;;;5073043;28;20455;-59
2022/06/17 07:52:53;;;;;;;10.50;6.82;;;;;;;;;;5065045;28;20472;-59
2022/06/17 07:55:19;;;;;;;8.65;6.80;;;;;;;;;;5067043;28;20060;-59
2022/06/17 07:57:45;;;;;;;9.98;6.50;;;;;;;;;;5069544;28;20039;-59
2022/06/17 08:00:20;;;;;;;7.95;6.63;;;;;;;;;;5073090;28;20051;-60
2022/06/17 08:02:45;;;;;;;10.27;6.95;;;;;;;;;;5069787;28;20103;-58
2022/06/17 08:05:11;;;;;;;8.00;6.90;;;;;;;;;;5066654;28;20465;-60
2022/06/17 08:07:36;;;;;;;10.55;7.05;;;;;;;;;;5068555;28;20021;-59
2022/06/17 08:10:03;;;;;;;10.02;7.13;;;;;;;;;;5072519;28;20040;-58
2022/06/17 08:12:28;;;;;;;10.77;6.55;;;;;;;;;;5068578;28;20495;-59
2022/06/17 08:14:56;;;;;;;9.80;6.70;;;;;;;;;;5067406;28;20082;-58
2022/06/17 08:17:22;;;;;;;11.32;7.07;;;;;;;;;;5058285;28;20393;-58
2022/06/17 08:19:50;;;;;;;11.02;6.95;;;;;;;;;;5062054;28;20452;-59
2022/06/17 08:22:17;;;;;;;9.37;6.83;;;;;;;;;;5061174;28;20032;-59
2022/06/17 08:24:42;;;;;;;12.65;7.32;;;;;;;;;;5060412;28;20301;-59
2022/06/17 08:27:07;;;;;;;10.48;7.40;;;;;;;;;;5058887;28;20057;-59
2022/06/17 08:29:33;;;;;;;7.80;6.10;;;;;;;;;;5066411;28;20036;-59
2022/06/17 08:32:45;;;;;;;9.82;6.60;;;;;;;;;;5067415;28;20025;-59
2022/06/17 08:34:45;;;;;;;8.25;6.28;;;;;;;;;;5068944;28;20476;-60
2022/06/17 08:37:12;;;;;;;12.30;6.72;;;;;;;;;;5070773;28;20032;-59
2022/06/17 08:39:38;;;;;;;14.30;6.50;;;;;;;;;;5070644;28;20449;-58
2022/06/17 08:42:27;;;;;;;8.90;6.82;;;;;;;;;;5068661;28;20093;-59
2022/06/17 08:44:58;;;;;;;6.93;6.18;;;;;;;;;;5064956;28;20021;-59
2022/06/17 08:47:44;;;;;;;8.77;6.22;;;;;;;;;;5065891;28;20042;-59
2022/06/17 08:50:28;;;;;;;8.35;6.35;;;;;;;;;;5068227;28;20491;-59
2022/06/17 08:52:59;;;;;;;11.80;6.07;;;;;;;;;;5066461;28;20140;-59
2022/06/17 08:55:34;;;;;;;10.32;6.32;;;;;;;;;;5072658;28;20034;-58
2022/06/17 08:58:15;;;;;;;9.30;6.00;;;;;;;;;;5069905;28;20028;-58
2022/06/17 09:01:03;;;;;;;11.00;5.90;;;;;;;;;;5073141;28;20426;-59
2022/06/17 09:04:14;;;;;;;7.90;6.00;;;;;;;;;;5076358;28;20032;-59
2022/06/17 09:07:16;;;;;;;9.30;5.72;;;;;;;;;;5074105;28;20044;-59
2022/06/17 09:10:04;;;;;;;8.55;6.03;;;;;;;;;;5072973;28;20039;-59
2022/06/17 09:12:39;;;;;;;11.63;6.10;;;;;;;;;;5068974;28;20032;-59
2022/06/17 09:15:30;;;;;;;12.13;6.13;;;;;;;;;;5070576;28;20028;-58
2022/06/17 09:18:22;;;;;;;7.28;5.72;;;;;;;;;;5060762;28;20059;-59
2022/06/17 09:20:53;;;;;;;9.63;6.00;;;;;;;;;;5060845;28;20183;-59
2022/06/17 09:23:23;;;;;;;7.72;6.03;;;;;;;;;;5066970;28;20024;-59
2022/06/17 09:25:49;;;;;;;12.35;5.50;;;;;;;;;;5064210;28;20029;-59
2022/06/17 09:28:43;;;;;;;9.02;5.40;;;;;;;;;;5065003;28;20032;-59
2022/06/17 09:31:17;;;;;;;6.90;5.18;;;;;;;;;;5064181;28;20044;-60
2022/06/17 09:33:53;;;;;;;7.13;5.80;;;;;;;;;;5073272;28;20100;-59
2022/06/17 09:36:25;;;;;;;8.55;5.47;;;;;;;;;;5072787;28;20384;-59
2022/06/17 09:38:59;;;;;;;7.68;5.53;;;;;;;;;;5063696;28;20025;-59
2022/06/17 09:41:43;;;;;;;8.27;5.55;;;;;;;;;;5071830;28;20059;-59
2022/06/17 09:44:20;;;;;;;7.28;5.45;;;;;;;;;;5073296;28;20410;-59
2022/06/17 09:47:12;;;;;;;10.13;5.63;;;;;;;;;;5071497;28;20412;-60
2022/06/17 09:49:47;;;;;;;7.22;5.18;;;;;;;;;;5069652;28;20107;-59
2022/06/17 09:52:21;;;;;;;5.75;5.25;;;;;;;;;;5075730;28;20487;-59
2022/06/17 09:55:07;;;;;;;9.27;5.13;;;;;;;;;;5072345;28;20466;-60
2022/06/17 09:57:39;;;;;;;7.28;5.68;;;;;;;;;;5070894;28;20020;-59
2022/06/17 10:00:18;;;;;;;6.60;5.45;;;;;;;;;;5075161;28;20462;-59
2022/06/17 10:02:49;;;;;;;6.22;5.60;;;;;;;;;;5065721;28;20031;-59
2022/06/17 10:05:34;;;;;;;7.57;5.20;;;;;;;;;;5071091;28;20108;-57
2022/06/17 10:08:17;;;;;;;7.72;4.90;;;;;;;;;;5068186;28;20028;-56
2022/06/17 10:10:57;;;;;;;7.05;4.75;;;;;;;;;;5067328;28;20036;-57
2022/06/17 10:13:33;;;;;;;5.47;4.80;;;;;;;;;;5074074;28;20299;-56
2022/06/17 10:19:42;;;;;;;5.88;4.05;;;;;;;;;;5058826;28;20031;-55
2022/06/17 10:22:24;;;;;;;8.77;4.00;;;;;;;;;;5055355;28;20047;-56
2022/06/17 10:25:31;;;;;;;8.48;4.78;;;;;;;;;;5060187;28;20070;-56
2022/06/17 10:28:21;;;;;;;8.20;4.65;;;;;;;;;;5059485;28;20024;-56
2022/06/17 10:30:55;;;;;;;6.72;3.97;;;;;;;;;;5060746;28;20032;-56
2022/06/17 10:33:21;;;;;;;4.35;3.80;;;;;;;;;;5064332;28;20127;-56
2022/06/17 10:35:48;;;;;;;4.72;3.42;;;;;;;;;;5065156;28;20024;-56
2022/06/17 10:38:20;;;;;;;11.82;5.60;;;;;;;;;;5071463;28;20036;-58
2022/06/17 10:40:47;;;;;;;6.03;4.43;;;;;;;;;;5067454;28;20361;-55
2022/06/17 10:43:20;;;;;;;4.30;3.90;;;;;;;;;;5062635;28;20484;-55
2022/06/17 10:45:46;;;;;;;5.22;3.88;;;;;;;;;;5069388;28;20079;-56
2022/06/17 10:48:21;;;;;;;4.35;3.90;;;;;;;;;;5070730;28;20032;-56
2022/06/17 10:50:47;;;;;;;4.60;4.10;;;;;;;;;;5069812;28;20067;-56
2022/06/17 10:53:31;;;;;;;6.00;3.90;;;;;;;;;;5073879;28;20056;-55
2022/06/17 10:56:00;;;;;;;4.18;3.42;;;;;;;;;;5059816;28;20044;-55
2022/06/17 10:58:29;;;;;;;5.38;3.63;;;;;;;;;;5063046;28;20124;-55
2022/06/17 11:01:02;;;;;;;4.97;3.78;;;;;;;;;;5072007;28;20070;-55
2022/06/17 11:03:32;;;;;;;6.03;3.97;;;;;;;;;;5072692;28;20103;-56
2022/06/17 11:06:10;;;;;;;6.65;3.67;;;;;;;;;;5069651;28;20066;-55
2022/06/17 11:08:48;;;;;;;5.00;4.20;;;;;;;;;;5067835;28;20163;-57
2022/06/17 11:14:00;;;;;;;5.95;3.28;;;;;;;;;;5060826;28;20036;-56
2022/06/17 11:16:28;;;;;;;4.38;3.15;;;;;;;;;;5061308;28;20038;-55
2022/06/17 11:19:02;;;;;;;8.02;3.53;;;;;;;;;;5066532;28;20036;-55
2022/06/17 11:21:36;;;;;;;3.65;2.90;;;;;;;;;;5063382;28;20210;-56
2022/06/17 11:24:04;;;;;;;4.38;2.97;;;;;;;;;;5061143;28;20024;-56
2022/06/17 11:26:32;;;;;;;4.53;3.08;;;;;;;;;;5065482;28;20507;-56
2022/06/17 11:29:04;;;;;;;3.60;3.10;;;;;;;;;;5069662;28;20028;-57
2022/06/17 11:31:33;;;;;;;4.63;2.85;;;;;;;;;;5068026;28;20030;-56
2022/06/17 11:34:13;;;;;;;3.42;2.42;;;;;;;;;;5067035;28;20024;-56
2022/06/17 11:36:57;;;;;;;6.80;2.60;;;;;;;;;;5069531;28;20023;-56
2022/06/17 11:40:05;;;;;;;2.33;2.00;;;;;;;;;;5068461;28;20017;-56
2022/06/17 11:42:31;;;;;;;4.70;2.70;;;;;;;;;;5063552;28;20035;-57
2022/06/17 11:45:01;;;;;;;3.13;2.75;;;;;;;;;;5068036;28;20396;-56
2022/06/17 11:47:30;;;;;;;2.83;2.50;;;;;;;;;;5064192;28;20432;-56
2022/06/17 11:49:57;;;;;;;;;;;;;;;;;;5068237;28;20028;-56
2022/06/17 11:52:30;;;;;;;5.72;2.60;;;;;;;;;;5061989;28;19915;-56
2022/06/17 11:54:57;;;;;;;3.92;2.13;;;;;;;;;;5065212;28;20036;-56
2022/06/17 11:57:30;;;;;;;4.43;2.28;;;;;;;;;;5061573;28;20021;-56
2022/06/17 12:00:04;;;;;;;2.10;1.90;;;;;;;;;;5064693;28;20056;-56
2022/06/17 12:02:31;;;;;;;3.92;2.05;;;;;;;;;;5062349;28;20031;-58
2022/06/17 12:05:19;;;;;;;8.48;2.60;;;;;;;;;;5065068;28;20028;-58
2022/06/17 12:07:51;;;;;;;4.05;2.30;;;;;;;;;;5063763;28;20035;-59
2022/06/17 12:10:46;;;;;;;5.25;2.35;;;;;;;;;;5064339;28;20025;-57
2022/06/17 12:13:27;;;;;;;4.75;2.95;;;;;;;;;;5061183;28;20032;-58
2022/06/17 12:16:08;;;;;;;5.35;3.05;;;;;;;;;;5060424;28;20028;-57
2022/06/17 12:18:36;;;;;;;4.53;2.45;;;;;;;;;;5059006;28;20033;-58
2022/06/17 12:21:30;;;;;;;3.85;2.70;;;;;;;;;;5064447;28;20111;-58
2022/06/17 12:24:10;;;;;;;3.78;2.85;;;;;;;;;;5057365;28;20079;-58
2022/06/17 12:27:01;;;;;;;5.10;2.50;;;;;;;;;;5061062;28;20498;-58
2022/06/17 12:29:26;;;;;;;2.88;2.60;;;;;;;;;;5060679;28;20037;-57
2022/06/17 12:31:54;;;;;;;6.22;2.60;;;;;;;;;;5060178;28;20033;-57
2022/06/17 12:34:49;;;;;;;6.57;2.92;;;;;;;;;;5062127;28;20028;-57
2022/06/17 12:37:38;;;;;;;7.22;2.80;;;;;;;;;;5064849;28;20459;-58
2022/06/17 12:40:17;;;;;;;9.50;4.07;;;;;;;;;;5065707;28;20555;-57
2022/06/17 12:42:53;;;;;;;3.60;3.05;;;;;;;;;;5066028;28;20588;-58
2022/06/17 12:45:45;;;;;;;6.05;2.40;;;;;;;;;;5069346;28;20031;-57
2022/06/17 12:48:22;;;;;;;5.22;2.47;;;;;;;;;;5071159;28;20029;-58
2022/06/17 12:53:45;;;;;;;5.00;2.97;;;;;;;;;;5071314;28;20052;-57
2022/06/17 12:56:13;;;;;;;4.82;2.58;;;;;;;;;;5073320;28;20529;-57
2022/06/17 12:59:05;;;;;;;3.58;2.20;;;;;;;;;;5073310;28;20032;-57
2022/06/17 13:01:36;;;;;;;2.35;1.98;;;;;;;;;;5076681;28;20483;-57
2022/06/17 13:04:17;;;;;;;2.83;2.20;;;;;;;;;;5072102;28;20025;-58
2022/06/17 13:07:14;;;;;;;2.25;2.05;;;;;;;;;;5074591;28;20473;-57
2022/06/17 13:09:57;;;;;;;4.32;2.20;;;;;;;;;;5054112;28;20346;-57
2022/06/17 13:12:34;;;;;;;4.63;2.50;;;;;;;;;;5065044;28;20500;-57
2022/06/17 13:15:05;;;;;;;5.00;2.40;;;;;;;;;;5059134;28;20040;-57
2022/06/17 13:17:47;;;;;;;4.50;2.10;;;;;;;;;;5066158;28;20491;-57
2022/06/17 13:20:30;;;;;;;5.32;2.40;;;;;;;;;;5062914;28;20047;-57
2022/06/17 13:23:05;;;;;;;4.95;2.30;;;;;;;;;;5059299;28;20032;-57
2022/06/17 13:25:38;;;;;;;5.07;2.65;;;;;;;;;;5065621;28;20036;-57
2022/06/17 13:28:12;;;;;;;3.97;2.17;;;;;;;;;;5073845;28;20025;-57
2022/06/17 13:30:44;;;;;;;3.25;2.30;;;;;;;;;;5067313;28;20056;-57
2022/06/17 13:33:17;;;;;;;5.80;3.10;;;;;;;;;;5057829;28;20078;-57
2022/06/17 13:35:52;;;;;;;2.85;1.90;;;;;;;;;;5055707;28;20028;-57
2022/06/17 13:38:23;;;;;;;4.45;2.10;;;;;;;;;;5058590;28;20028;-57
2022/06/17 13:40:59;;;;;;;4.63;2.38;;;;;;;;;;5062143;28;20104;-57
2022/06/17 13:43:32;;;;;;;2.85;2.20;;;;;;;;;;5065441;28;20551;-57
2022/06/17 13:46:29;;;;;;;2.92;2.20;;;;;;;;;;5070987;28;20040;-58
2022/06/17 13:49:05;;;;;;;3.55;2.47;;;;;;;;;;5057855;28;20491;-57
2022/06/17 13:51:38;;;;;;;4.28;1.88;;;;;;;;;;5069218;28;20463;-58
2022/06/17 13:54:11;;;;;;;4.03;2.08;;;;;;;;;;5069776;28;20052;-58
2022/06/17 13:56:51;;;;;;;3.47;1.80;;;;;;;;;;5068530;28;20461;-58
2022/06/17 13:59:51;;;;;;;9.98;3.53;;;;;;;;;;5069450;28;20021;-58
2022/06/17 14:02:44;;;;;;;4.80;1.90;;;;;;;;;;5068821;28;20023;-59
2022/06/17 14:05:24;;;;;;;2.10;1.90;;;;;;;;;;5069124;28;20025;-58
2022/06/17 14:07:50;;;;;;;3.45;1.80;;;;;;;;;;5073087;28;20032;-58
2022/06/17 14:10:31;;;;;;;4.25;1.60;;;;;;;;;;5070620;28;20490;-58
2022/06/17 14:12:58;;;;;;;3.33;1.70;;;;;;;;;;5061085;28;20056;-58
2022/06/17 14:15:29;;;;;;;8.93;1.80;;;;;;;;;;5065213;28;20180;-59
2022/06/17 14:17:58;;;;;;;2.33;1.90;;;;;;;;;;5062397;28;20142;-59
2022/06/17 14:20:25;;;;;;;;;;;;;;;;;;5066226;28;20028;-59
2022/06/17 14:23:34;;;;;;;6.95;2.30;;;;;;;;;;5061957;28;20393;-58
2022/06/17 14:26:02;;;;;;;4.60;2.10;;;;;;;;;;5072400;28;20036;-58
2022/06/17 14:28:34;;;;;;;;;;;;;;;;;;5070173;28;20162;-58
2022/06/17 14:31:29;;;;;;;2.45;2.25;;;;;;;;;;5070465;28;19924;-59
2022/06/17 14:33:54;;;;;;;3.85;2.15;;;;;;;;;;5065596;28;20115;-58
2022/06/17 14:36:57;;;;;;;3.30;2.25;;;;;;;;;;5070971;28;20108;-58
2022/06/17 14:39:40;;;;;;;2.45;2.25;;;;;;;;;;5068091;28;20024;-62
2022/06/17 14:42:15;;;;;;;3.55;2.05;;;;;;;;;;5068924;28;20042;-59
2022/06/17 14:45:06;;;;;;;2.38;1.83;;;;;;;;;;5071660;28;20495;-59
2022/06/17 14:47:57;;;;;;;1.90;1.60;;;;;;;;;;5062354;28;20407;-59
2022/06/17 14:50:38;;;;;;;2.63;1.70;;;;;;;;;;5070203;28;20110;-59
2022/06/17 14:53:09;;;;;;;4.95;1.52;;;;;;;;;;5074139;28;20460;-58
2022/06/17 14:55:55;;;;;;;3.17;1.63;;;;;;;;;;5077460;28;20103;-58
2022/06/17 14:58:22;;;;;;;1.83;1.70;;;;;;;;;;5068840;28;20025;-60
2022/06/17 15:00:51;;;;;;;6.30;1.70;;;;;;;;;;5073209;28;20034;-59
2022/06/17 15:03:34;;;;;;;2.97;1.60;;;;;;;;;;5075666;28;20036;-58
2022/06/17 15:06:01;;;;;;;4.32;1.30;;;;;;;;;;5068344;28;20108;-58
2022/06/17 15:08:35;;;;;;;1.70;1.42;;;;;;;;;;5069267;28;20400;-58
2022/06/17 15:11:07;;;;;;;1.40;1.30;;;;;;;;;;5065124;28;20144;-58
2022/06/17 15:16:27;;;;;;;2.28;1.20;;;;;;;;;;5065366;28;20158;-59
2022/06/17 15:18:54;;;;;;;2.67;1.20;;;;;;;;;;5065440;28;20077;-60
2022/06/17 15:21:34;;;;;;;1.88;1.30;;;;;;;;;;5066241;28;20036;-60
2022/06/17 15:24:20;;;;;;;1.83;1.20;;;;;;;;;;5065991;28;20031;-59
2022/06/17 15:26:48;;;;;;;3.70;1.00;;;;;;;;;;5071283;28;20055;-59
2022/06/17 15:29:17;;;;;;;3.28;1.52;;;;;;;;;;5071142;28;20078;-58
2022/06/17 15:31:48;;;;;;;2.30;1.33;;;;;;;;;;5069311;28;20033;-58
2022/06/17 15:34:18;;;;;;;1.50;1.25;;;;;;;;;;5067629;28;20106;-59
2022/06/17 15:36:47;;;;;;;2.15;1.40;;;;;;;;;;5071023;28;20697;-58
2022/06/17 15:39:42;;;;;;;2.47;1.48;;;;;;;;;;5068836;28;20032;-58